createdAt,value
2019-05-13T00:01:34.454Z,103723.19
2019-05-13T00:04:21.419Z,103722.18
2019-05-13T00:07:09.900Z,103721.03
2019-05-13T00:09:57.826Z,103725.77
2019-05-13T00:12:45.362Z,103727.39
2019-05-13T00:15:34.183Z,103735.16
2019-05-13T00:18:23.528Z,103730.23
2019-05-13T00:21:09.254Z,103728.35
2019-05-13T00:23:57.632Z,103730.05
2019-05-13T00:26:44.948Z,103732.45
2019-05-13T00:29:34.034Z,103734.63
2019-05-13T00:32:20.846Z,103728.42
2019-05-13T00:35:08.736Z,103726.97
2019-05-13T00:37:56.390Z,103722.87
2019-05-13T00:40:44.600Z,103729.02
2019-05-13T00:43:33.822Z,103730.63
2019-05-13T00:46:20.485Z,103729.72
2019-05-13T00:49:08.245Z,103735.29
2019-05-13T00:51:55.958Z,103740.10
2019-05-13T00:54:44.141Z,103735.56
2019-05-13T00:57:31.113Z,103743.73
2019-05-13T01:00:18.998Z,103744.52
2019-05-13T01:03:06.796Z,103744.31
2019-05-13T01:05:54.318Z,103743.37
2019-05-13T01:08:44.100Z,103741.37
2019-05-13T01:11:29.904Z,103749.29
2019-05-13T01:14:18.150Z,103744.45
2019-05-13T01:17:05.783Z,103744.30
2019-05-13T01:19:53.839Z,103747.66
2019-05-13T01:22:41.038Z,103746.61
2019-05-13T01:25:28.784Z,103748.44
2019-05-13T01:28:16.798Z,103749.89
2019-05-13T01:31:04.418Z,103756.98
2019-05-13T01:33:53.746Z,103761.78
2019-05-13T01:36:40.410Z,103755.55
2019-05-13T01:39:28.068Z,103758.48
2019-05-13T01:42:16.029Z,103754.02
2019-05-13T01:45:04.636Z,103751.80
2019-05-13T01:47:53.815Z,103756.56
2019-05-13T01:50:39.409Z,103760.14
2019-05-13T01:53:27.113Z,103753.51
2019-05-13T01:56:14.969Z,103750.09
2019-05-13T01:59:03.618Z,103751.84
2019-05-13T02:01:50.116Z,103748.69
2019-05-13T02:04:38.570Z,103758.59
2019-05-13T02:07:26.811Z,103754.59
2019-05-13T02:10:14.602Z,103756.76
2019-05-13T02:13:04.035Z,103754.92
2019-05-13T02:15:50.632Z,103757.45
2019-05-13T02:18:38.866Z,103759.11
2019-05-13T02:21:27.129Z,103752.39
2019-05-13T02:24:14.734Z,103756.17
2019-05-13T02:27:03.695Z,103757.39
2019-05-13T02:29:49.908Z,103756.87
2019-05-13T02:32:37.388Z,103765.66
2019-05-13T02:35:25.593Z,103762.09
2019-05-13T02:38:23.686Z,103759.38
2019-05-13T02:41:02.830Z,103757.99
2019-05-13T02:43:52.406Z,103760.59
2019-05-13T02:46:37.444Z,103765.25
2019-05-13T02:49:25.671Z,103771.75
2019-05-13T02:52:13.629Z,103777.42
2019-05-13T02:55:04.091Z,103774.67
2019-05-13T02:57:48.441Z,103783.07
2019-05-13T03:00:36.800Z,103788.42
2019-05-13T03:03:24.698Z,103788.68
2019-05-13T03:06:13.456Z,103787.20
2019-05-13T03:09:03.105Z,103788.06
2019-05-13T03:11:53.233Z,103791.47
2019-05-13T03:14:36.805Z,103792.72
2019-05-13T03:17:28.277Z,103790.84
2019-05-13T03:20:16.921Z,103793.05
2019-05-13T03:23:04.028Z,103801.45
2019-05-13T03:25:53.751Z,103783.44
2019-05-13T03:28:43.125Z,103791.41
2019-05-13T03:31:27.870Z,103790.52
2019-05-13T03:34:16.635Z,103807.02
2019-05-13T03:37:06.372Z,103803.34
2019-05-13T03:39:52.352Z,103808.09
2019-05-13T03:42:42.308Z,103809.41
2019-05-13T03:45:26.921Z,103812.00
2019-05-13T03:48:15.354Z,103814.66
2019-05-13T03:51:02.896Z,103819.91
2019-05-13T03:53:53.597Z,103824.77
2019-05-13T03:56:38.636Z,103824.02
2019-05-13T03:59:27.009Z,103823.59
2019-05-13T04:02:14.634Z,103818.59
2019-05-13T04:05:04.309Z,103823.98
2019-05-13T04:07:52.336Z,103817.42
2019-05-13T04:10:38.533Z,103827.09
2019-05-13T04:13:26.077Z,103827.33
2019-05-13T04:16:14.418Z,103833.67
2019-05-13T04:19:02.716Z,103833.67
2019-05-13T04:21:52.859Z,103830.72
2019-05-13T04:24:38.447Z,103828.78
2019-05-13T04:27:25.983Z,103839.72
2019-05-13T04:30:14.277Z,103845.23
2019-05-13T04:33:02.512Z,103850.09
2019-05-13T04:35:52.635Z,103835.88
2019-05-13T04:38:37.057Z,103840.04
2019-05-13T04:41:24.638Z,103840.73
2019-05-13T04:44:13.036Z,103843.09
2019-05-13T04:47:03.648Z,103835.45
2019-05-13T04:49:48.459Z,103844.25
2019-05-13T04:52:36.811Z,103842.92
2019-05-13T04:55:24.518Z,103852.20
2019-05-13T04:58:13.176Z,103850.63
2019-05-13T05:01:40.455Z,103845.27
2019-05-13T05:04:34.828Z,103847.71
2019-05-13T05:07:33.603Z,103847.24
2019-05-13T05:10:53.263Z,103846.19
2019-05-13T05:14:02.714Z,103850.19
2019-05-13T05:17:12.388Z,103849.16
2019-05-13T05:20:25.234Z,103851.29
2019-05-13T05:23:51.531Z,103853.66
2019-05-13T05:27:27.171Z,103856.66
2019-05-13T05:30:41.876Z,103856.37
2019-05-13T05:33:41.235Z,103859.38
2019-05-13T05:37:06.695Z,103860.05
2019-05-13T05:39:55.171Z,103867.55
2019-05-13T05:42:42.574Z,103870.44
2019-05-13T05:45:31.886Z,103864.31
2019-05-13T05:48:18.445Z,103865.95
2019-05-13T05:51:06.071Z,103867.19
2019-05-13T05:53:54.359Z,103865.45
2019-05-13T05:56:42.267Z,103858.93
2019-05-13T05:59:32.017Z,103866.16
2019-05-13T06:02:17.966Z,103869.84
2019-05-13T06:05:05.682Z,103865.62
2019-05-13T06:07:53.189Z,103875.48
2019-05-13T06:10:49.103Z,103875.95
2019-05-13T06:13:28.863Z,103863.57
2019-05-13T06:16:16.397Z,103867.27
2019-05-13T06:19:04.636Z,103860.77
2019-05-13T06:21:53.118Z,103866.09
2019-05-13T06:24:42.151Z,103865.19
2019-05-13T06:27:28.827Z,103868.27
2019-05-13T06:30:21.546Z,103872.62
2019-05-13T06:33:06.999Z,103871.75
2019-05-13T06:35:55.244Z,103870.91
2019-05-13T06:38:43.039Z,103873.34
2019-05-13T06:41:32.388Z,103875.75
2019-05-13T06:44:18.521Z,103875.75
2019-05-13T06:47:06.188Z,103869.30
2019-05-13T06:49:54.435Z,103880.25
2019-05-13T06:52:42.604Z,103867.02
2019-05-13T06:55:31.600Z,103866.26
2019-05-13T06:58:18.436Z,103860.41
2019-05-13T07:01:06.401Z,103868.70
2019-05-13T07:03:54.720Z,103865.45
2019-05-13T07:06:42.725Z,103867.63
2019-05-13T07:09:32.409Z,103867.63
2019-05-13T07:12:18.352Z,103862.98
2019-05-13T07:15:06.678Z,103832.33
2019-05-13T07:17:54.946Z,103855.41
2019-05-13T07:20:42.909Z,103866.91
2019-05-13T07:23:31.838Z,103866.91
2019-05-13T07:26:18.111Z,103860.93
2019-05-13T07:29:12.475Z,103859.16
2019-05-13T07:31:57.603Z,103854.41
2019-05-13T07:34:45.110Z,103836.92
2019-05-13T07:37:33.371Z,103861.78
2019-05-13T07:40:22.223Z,103868.27
2019-05-13T07:43:09.312Z,103856.22
2019-05-13T07:45:56.641Z,103856.22
2019-05-13T07:48:44.748Z,103862.64
2019-05-13T07:51:32.319Z,103862.34
2019-05-13T07:54:22.079Z,103855.64
2019-05-13T07:57:08.049Z,103858.26
2019-05-13T07:59:55.457Z,103857.80
2019-05-13T08:02:43.053Z,103857.80
2019-05-13T08:05:31.500Z,103856.58
2019-05-13T08:08:21.877Z,103846.53
2019-05-13T08:11:06.865Z,103846.53
2019-05-13T08:13:55.123Z,103855.55
2019-05-13T08:16:43.387Z,103855.55
2019-05-13T08:19:32.528Z,103853.41
2019-05-13T08:22:22.115Z,103839.83
2019-05-13T08:25:07.325Z,103854.05
2019-05-13T08:27:55.307Z,103853.27
2019-05-13T08:30:43.123Z,103862.03
2019-05-13T08:33:32.111Z,103856.83
2019-05-13T08:36:18.789Z,103856.82
2019-05-13T08:39:08.860Z,103851.42
2019-05-13T08:42:11.718Z,103852.30
2019-05-13T08:44:44.647Z,103847.38
2019-05-13T08:47:32.025Z,103852.69
2019-05-13T08:50:22.013Z,103850.92
2019-05-13T08:53:08.590Z,103843.48
2019-05-13T08:56:05.090Z,103847.90
2019-05-13T08:58:52.142Z,103847.34
2019-05-13T09:01:38.251Z,103842.80
2019-05-13T09:04:26.395Z,103842.55
2019-05-13T09:07:14.165Z,103833.83
2019-05-13T09:10:02.185Z,103844.53
2019-05-13T09:12:52.227Z,103837.72
2019-05-13T09:15:37.406Z,103837.08
2019-05-13T09:18:25.098Z,103836.29
2019-05-13T09:21:12.685Z,103840.22
2019-05-13T09:24:02.204Z,103834.34
2019-05-13T09:26:48.149Z,103836.70
2019-05-13T09:29:35.875Z,103847.54
2019-05-13T09:32:23.687Z,103826.66
2019-05-13T09:35:12.142Z,103830.94
2019-05-13T09:38:03.032Z,103833.98
2019-05-13T09:40:47.421Z,103828.00
2019-05-13T09:43:36.546Z,103824.95
2019-05-13T09:46:22.800Z,103826.52
2019-05-13T09:49:19.131Z,103821.94
2019-05-13T09:51:58.667Z,103814.14
2019-05-13T09:54:46.255Z,103810.42
2019-05-13T09:57:33.553Z,103823.75
2019-05-13T10:00:21.896Z,103828.48
2019-05-13T10:03:08.905Z,103811.77
2019-05-13T10:05:56.755Z,103810.66
2019-05-13T10:08:44.875Z,103810.89
2019-05-13T10:11:32.705Z,103807.93
2019-05-13T10:14:23.006Z,103813.55
2019-05-13T10:17:08.173Z,103809.48
2019-05-13T10:19:56.187Z,103808.78
2019-05-13T10:22:43.928Z,103812.47
2019-05-13T10:25:31.441Z,103806.39
2019-05-13T10:28:21.632Z,103799.20
2019-05-13T10:31:06.816Z,103813.09
2019-05-13T10:33:55.039Z,103802.31
2019-05-13T10:36:42.887Z,103803.05
2019-05-13T10:39:30.777Z,103797.55
2019-05-13T10:42:19.057Z,103799.93
2019-05-13T10:45:06.683Z,103797.64
2019-05-13T10:47:54.227Z,103801.50
2019-05-13T10:50:42.176Z,103786.30
2019-05-13T10:53:32.012Z,103781.38
2019-05-13T10:56:18.103Z,103782.37
2019-05-13T10:59:06.376Z,103770.38
2019-05-13T11:01:54.287Z,103779.19
2019-05-13T11:04:42.044Z,103771.68
2019-05-13T11:07:32.055Z,103773.67
2019-05-13T11:10:18.213Z,103772.05
2019-05-13T11:13:06.101Z,103774.34
2019-05-13T11:15:58.011Z,103760.62
2019-05-13T11:18:41.412Z,103748.94
2019-05-13T11:21:28.975Z,103754.34
2019-05-13T11:24:17.224Z,103752.59
2019-05-13T11:27:05.763Z,103749.45
2019-05-13T11:29:53.201Z,103747.52
2019-05-13T11:32:42.604Z,103733.90
2019-05-13T11:35:28.909Z,103737.90
2019-05-13T11:38:17.383Z,103738.25
2019-05-13T11:41:04.867Z,103735.03
2019-05-13T11:44:10.995Z,103738.19
2019-05-13T11:46:42.798Z,103738.36
2019-05-13T11:49:28.083Z,103728.97
2019-05-13T11:52:16.379Z,103718.69
2019-05-13T11:55:04.482Z,103722.88
2019-05-13T11:57:53.011Z,103720.50
2019-05-13T12:00:47.720Z,103723.79
2019-05-13T12:03:35.679Z,103716.48
2019-05-13T12:06:23.813Z,103716.66
2019-05-13T12:09:13.097Z,103710.88
2019-05-13T12:12:02.835Z,103699.64
2019-05-13T12:15:16.245Z,103704.30
2019-05-13T12:17:34.839Z,103711.11
2019-05-13T12:20:22.220Z,103709.36
2019-05-13T12:23:13.038Z,103707.71
2019-05-13T12:25:58.176Z,103702.67
2019-05-13T12:28:46.471Z,103686.59
2019-05-13T12:31:34.181Z,103694.94
2019-05-13T12:34:22.863Z,103695.22
2019-05-13T12:37:12.310Z,103691.36
2019-05-13T12:39:57.559Z,103694.97
2019-05-13T12:42:47.179Z,103690.96
2019-05-13T12:45:33.513Z,103689.86
2019-05-13T12:48:22.877Z,103684.20
2019-05-13T12:51:13.268Z,103680.91
2019-05-13T12:53:59.421Z,103683.48
2019-05-13T12:56:52.178Z,103663.09
2019-05-13T12:59:36.850Z,103671.30
2019-05-13T13:02:27.609Z,103672.86
2019-05-13T13:05:20.278Z,103664.63
2019-05-13T13:08:18.310Z,103664.98
2019-05-13T13:10:59.151Z,103652.82
2019-05-13T13:13:57.841Z,103641.52
2019-05-13T13:16:34.337Z,103643.92
2019-05-13T13:19:15.857Z,103634.52
2019-05-13T13:24:56.714Z,103621.43
2019-05-13T13:28:03.265Z,103635.11
2019-05-13T13:30:28.113Z,103637.20
2019-05-13T13:33:15.536Z,103630.44
2019-05-13T13:36:05.071Z,103628.70
2019-05-13T13:38:56.254Z,103632.34
2019-05-13T13:41:38.713Z,103626.87
2019-05-13T13:44:26.797Z,103626.15
2019-05-13T13:47:15.501Z,103626.28
2019-05-13T13:50:02.541Z,103612.95
2019-05-13T13:52:52.743Z,103622.94
2019-05-13T13:55:38.260Z,103611.38
2019-05-13T13:58:26.353Z,103610.56
2019-05-13T14:01:19.883Z,103619.97
2019-05-13T14:04:03.804Z,103609.70
2019-05-13T14:06:52.391Z,103633.14
2019-05-13T14:09:37.809Z,103613.80
2019-05-13T14:12:25.627Z,103605.32
2019-05-13T14:15:13.582Z,103607.03
2019-05-13T14:18:01.282Z,103601.61
2019-05-13T14:20:49.046Z,103596.06
2019-05-13T14:23:38.032Z,103594.77
2019-05-13T14:26:24.249Z,103597.44
2019-05-13T14:29:12.569Z,103596.87
2019-05-13T14:32:01.322Z,103596.72
2019-05-13T14:34:48.011Z,103588.89
2019-05-13T14:37:35.927Z,103584.51
2019-05-13T14:40:23.796Z,103583.01
2019-05-13T14:43:12.212Z,103579.31
2019-05-13T14:46:02.356Z,103577.79
2019-05-13T14:48:47.405Z,103577.80
2019-05-13T14:51:34.820Z,103577.59
2019-05-13T14:54:22.866Z,103569.08
2019-05-13T14:57:12.658Z,103570.09
2019-05-13T14:59:58.799Z,103571.83
2019-05-13T15:02:46.248Z,103559.98
2019-05-13T15:05:34.591Z,103568.77
2019-05-13T15:08:25.689Z,103561.54
2019-05-13T15:11:12.642Z,103565.58
2019-05-13T15:13:58.689Z,103556.95
2019-05-13T15:17:00.721Z,103561.70
2019-05-13T15:19:34.900Z,103557.66
2019-05-13T15:22:23.138Z,103558.66
2019-05-13T15:25:11.513Z,103572.81
2019-05-13T15:27:58.714Z,103560.41
2019-05-13T15:30:46.466Z,103568.27
2019-05-13T15:33:33.983Z,103563.67
2019-05-13T15:36:22.757Z,103574.73
2019-05-13T15:39:11.295Z,103564.08
2019-05-13T15:41:58.431Z,103570.23
2019-05-13T15:44:46.255Z,103565.14
2019-05-13T15:47:34.415Z,103559.14
2019-05-13T15:50:22.354Z,103559.16
2019-05-13T15:53:12.671Z,103555.70
2019-05-13T15:55:58.227Z,103552.13
2019-05-13T15:58:46.641Z,103553.31
2019-05-13T16:01:34.624Z,103551.27
2019-05-13T16:04:22.025Z,103544.97
2019-05-13T16:07:09.355Z,103552.80
2019-05-13T16:09:57.301Z,103562.22
2019-05-13T16:12:45.117Z,103551.78
2019-05-13T16:15:33.181Z,103553.00
2019-05-13T16:18:22.196Z,103555.27
2019-05-13T16:21:09.048Z,103550.55
2019-05-13T16:23:57.117Z,103546.61
2019-05-13T16:26:44.822Z,103556.22
2019-05-13T16:29:32.846Z,103557.39
2019-05-13T16:32:22.756Z,103552.08
2019-05-13T16:35:09.244Z,103551.56
2019-05-13T16:37:56.784Z,103548.52
2019-05-13T16:40:44.703Z,103556.79
2019-05-13T16:43:32.253Z,103560.97
2019-05-13T16:46:21.392Z,103550.30
2019-05-13T16:49:08.590Z,103552.82
2019-05-13T16:51:56.490Z,103549.22
2019-05-13T16:54:44.224Z,103551.35
2019-05-13T16:57:31.838Z,103547.43
2019-05-13T17:00:19.447Z,103542.08
2019-05-13T17:03:07.812Z,103551.25
2019-05-13T17:05:55.039Z,103550.02
2019-05-13T17:08:43.576Z,103545.19
2019-05-13T17:11:32.111Z,103548.72
2019-05-13T17:14:18.624Z,103554.98
2019-05-13T17:17:06.427Z,103552.83
2019-05-13T17:19:54.131Z,103549.90
2019-05-13T17:22:42.342Z,103560.35
2019-05-13T17:25:29.942Z,103566.70
2019-05-13T17:28:17.963Z,103564.95
2019-05-13T17:31:06.193Z,103564.70
2019-05-13T17:33:53.805Z,103564.00
2019-05-13T17:36:42.080Z,103569.23
2019-05-13T17:39:29.438Z,103564.42
2019-05-13T17:42:17.676Z,103568.87
2019-05-13T17:45:05.633Z,103558.41
2019-05-13T17:47:53.289Z,103561.33
2019-05-13T17:50:41.737Z,103564.73
2019-05-13T17:53:32.268Z,103558.41
2019-05-13T17:56:18.167Z,103564.68
2019-05-13T17:59:05.813Z,103560.44
2019-05-13T18:01:53.905Z,103564.55
2019-05-13T18:04:41.758Z,103552.01
2019-05-13T18:07:29.367Z,103561.78
2019-05-13T18:10:16.918Z,103568.00
2019-05-13T18:13:04.765Z,103563.52
2019-05-13T18:15:52.826Z,103560.06
2019-05-13T18:18:46.909Z,103562.32
2019-05-13T18:21:28.803Z,103558.27
2019-05-13T18:24:17.054Z,103563.39
2019-05-13T18:27:04.727Z,103560.57
2019-05-13T18:29:52.268Z,103569.62
2019-05-13T18:32:39.790Z,103567.14
2019-05-13T18:35:28.016Z,103564.59
2019-05-13T18:38:15.516Z,103570.95
2019-05-13T18:41:03.568Z,103571.94
2019-05-13T18:43:54.559Z,103572.40
2019-05-13T18:46:41.731Z,103574.30
2019-05-13T18:49:27.634Z,103584.55
2019-05-13T18:52:15.341Z,103587.70
2019-05-13T18:55:03.671Z,103584.64
2019-05-13T18:57:51.871Z,103586.05
2019-05-13T19:00:38.864Z,103582.95
2019-05-13T19:03:26.494Z,103589.64
2019-05-13T19:06:14.423Z,103581.22
2019-05-13T19:09:02.917Z,103588.76
2019-05-13T19:11:51.553Z,103587.02
2019-05-13T19:14:41.035Z,103591.45
2019-05-13T19:17:26.264Z,103600.30
2019-05-13T19:20:14.617Z,103597.66
2019-05-13T19:23:02.672Z,103608.27
2019-05-13T19:25:51.356Z,103608.26
2019-05-13T19:28:38.451Z,103611.34
2019-05-13T19:31:26.180Z,103619.73
2019-05-13T19:34:13.540Z,103615.70
2019-05-13T19:37:02.557Z,103617.03
2019-05-13T19:39:49.307Z,103618.33
2019-05-13T19:42:37.084Z,103624.05
2019-05-13T19:45:24.600Z,103623.59
2019-05-13T19:48:12.569Z,103631.52
2019-05-13T19:51:01.577Z,103632.78
2019-05-13T19:53:48.219Z,103630.55
2019-05-13T19:56:35.701Z,103633.56
2019-05-13T19:59:23.913Z,103626.93
2019-05-13T20:02:12.506Z,103628.66
2019-05-13T20:05:01.171Z,103628.18
2019-05-13T20:07:47.813Z,103624.19
2019-05-13T20:10:36.032Z,103626.02
2019-05-13T20:13:24.398Z,103619.76
2019-05-13T20:16:12.056Z,103633.86
2019-05-13T20:19:01.296Z,103632.53
2019-05-13T20:21:47.546Z,103624.06
2019-05-13T20:24:35.173Z,103624.06
2019-05-13T20:27:22.780Z,103632.85
2019-05-13T20:30:11.390Z,103623.09
2019-05-13T20:32:58.187Z,103623.09
2019-05-13T20:35:46.081Z,103626.12
2019-05-13T20:38:34.312Z,103630.80
2019-05-13T20:41:22.476Z,103637.39
2019-05-13T20:44:10.088Z,103637.39
2019-05-13T20:46:58.199Z,103643.94
2019-05-13T20:49:58.198Z,103640.38
2019-05-13T20:52:33.660Z,103646.45
2019-05-13T20:55:22.084Z,103646.45
2019-05-13T20:58:09.240Z,103633.99
2019-05-13T21:00:57.555Z,103633.99
2019-05-13T21:03:45.826Z,103648.07
2019-05-13T21:06:33.715Z,103652.42
2019-05-13T21:09:22.346Z,103648.42
2019-05-13T21:12:11.883Z,103650.16
2019-05-13T21:14:57.812Z,103654.45
2019-05-13T21:17:45.491Z,103656.62
2019-05-13T21:20:33.786Z,103660.05
2019-05-13T21:23:21.862Z,103656.42
2019-05-13T21:26:13.165Z,103643.09
2019-05-13T21:28:58.063Z,103635.88
2019-05-13T21:31:46.295Z,103635.88
2019-05-13T21:34:34.516Z,103634.04
2019-05-13T21:37:22.252Z,103630.88
2019-05-13T21:40:11.204Z,103633.74
2019-05-13T21:42:57.159Z,103629.27
2019-05-13T21:45:45.253Z,103629.27
2019-05-13T21:48:32.886Z,103634.42
2019-05-13T21:51:22.140Z,103634.42
2019-05-13T21:54:08.532Z,103635.70
2019-05-13T21:56:56.389Z,103634.75
2019-05-13T21:59:45.191Z,103634.70
2019-05-13T22:02:31.837Z,103641.31
2019-05-13T22:05:19.586Z,103646.11
2019-05-13T22:08:07.210Z,103637.27
2019-05-13T22:10:54.842Z,103627.62
2019-05-13T22:13:42.422Z,103634.98
2019-05-13T22:16:31.867Z,103628.02
2019-05-13T22:19:18.667Z,103625.86
2019-05-13T22:22:06.214Z,103622.13
2019-05-13T22:24:53.804Z,103616.45
2019-05-13T22:27:41.856Z,103615.12
2019-05-13T22:30:33.321Z,103615.49
2019-05-13T22:33:17.728Z,103619.89
2019-05-13T22:36:05.352Z,103620.69
2019-05-13T22:38:53.632Z,103623.27
2019-05-13T22:41:42.111Z,103619.31
2019-05-13T22:44:29.206Z,103623.14
2019-05-13T22:47:17.099Z,103614.73
2019-05-13T22:50:04.929Z,103621.20
2019-05-13T22:52:52.296Z,103614.95
2019-05-13T22:55:41.838Z,103615.69
2019-05-13T22:58:27.522Z,103620.39
2019-05-13T23:01:15.681Z,103617.30
2019-05-13T23:04:03.796Z,103616.77
2019-05-13T23:06:52.129Z,103613.49
2019-05-13T23:09:41.608Z,103619.65
2019-05-13T23:12:27.975Z,103616.91
2019-05-13T23:15:15.687Z,103615.88
2019-05-13T23:18:03.418Z,103611.98
2019-05-13T23:20:51.690Z,103607.97
2019-05-13T23:23:39.074Z,103602.16
2019-05-13T23:26:26.494Z,103599.02
2019-05-13T23:29:14.350Z,103590.28
2019-05-13T23:32:02.370Z,103593.75
2019-05-13T23:34:51.269Z,103585.83
2019-05-13T23:37:37.422Z,103584.52
2019-05-13T23:40:25.319Z,103586.33
2019-05-13T23:43:13.718Z,103592.48
2019-05-13T23:46:01.405Z,103581.44
2019-05-13T23:48:49.200Z,103587.25
2019-05-13T23:51:36.648Z,103584.85
2019-05-13T23:54:24.254Z,103584.85
2019-05-13T23:57:12.385Z,103591.34
